Time;durP1;ratioP1;P1;durP2;ratioP2;P2;SDS_P1;SDS_P2;PMS_P1;PMS_P2;Temp;Humidity;BMP_temperature;BMP_pressure;BME280_temperature;BME280_humidity;BME280_pressure;Samples;Min_cycle;Max_cycle;Signal;HPM_P1;HPM_P2
2022/05/06 00:03:09;;;;;;;10.88;5.18;;;;;;;14.26;72.96;100978.28;18559877;32;20350;-64
2022/05/06 00:13:12;;;;;;;9.60;4.95;;;;;;;13.89;74.19;100983.81;18559156;32;20180;-64
2022/05/06 00:23:17;;;;;;;10.25;5.22;;;;;;;14.46;71.82;100976.34;18558533;32;20460;-64
2022/05/06 00:33:24;;;;;;;11.82;5.45;;;;;;;14.38;72.77;100976.44;18565045;32;20096;-64
2022/05/06 00:43:28;;;;;;;11.35;5.40;;;;;;;13.74;75.24;100977.78;18566372;32;20165;-64
2022/05/06 00:53:32;;;;;;;9.93;5.40;;;;;;;13.87;75.88;100988.22;18565482;32;20110;-64
2022/05/06 01:03:36;;;;;;;9.50;4.87;;;;;;;13.77;76.83;100982.13;18566430;32;20149;-64
2022/05/06 01:13:40;;;;;;;10.73;5.55;;;;;;;14.65;73.43;100992.84;18565127;32;20360;-64
2022/05/06 01:23:45;;;;;;;9.98;5.55;;;;;;;14.47;74.76;100984.25;18551141;32;20092;-64
2022/05/06 01:33:54;;;;;;;11.00;5.28;;;;;;;14.50;74.31;100978.09;18549831;32;20096;-64
2022/05/06 01:44:01;;;;;;;12.48;5.07;;;;;;;14.49;74.17;101002.63;18564085;32;20096;-64
2022/05/06 01:54:04;;;;;;;11.02;4.57;;;;;;;14.37;74.37;100993.97;18563851;32;20173;-64
2022/05/06 02:14:29;;;;;;;;;;;;;;;14.34;74.08;100987.88;18563589;32;20097;-64
2022/05/06 02:24:34;;;;;;;9.35;4.75;;;;;;;14.32;73.59;100997.50;18563162;32;20315;-64
2022/05/06 02:34:37;;;;;;;9.55;4.75;;;;;;;15.15;69.44;101000.22;18562438;32;20101;-64
2022/05/06 02:44:42;;;;;;;11.27;4.90;;;;;;;15.37;68.69;100992.94;18562035;32;20624;-64
2022/05/06 02:54:46;;;;;;;9.40;5.07;;;;;;;14.61;72.60;100997.25;18560908;32;20108;-64
2022/05/06 03:04:50;;;;;;;10.02;5.35;;;;;;;14.75;73.17;100991.88;18561644;32;20149;-64
2022/05/06 03:14:54;;;;;;;12.30;5.43;;;;;;;14.88;72.86;100973.34;18561096;32;20104;-64
2022/05/06 03:24:59;;;;;;;10.95;5.03;;;;;;;14.90;71.85;100971.59;18560600;32;20167;-64
2022/05/06 03:35:02;;;;;;;10.90;5.15;;;;;;;14.73;72.27;100984.91;18560540;32;20118;-64
2022/05/06 03:45:09;;;;;;;10.05;4.85;;;;;;;14.61;72.65;100997.25;18559588;32;20459;-64
2022/05/06 03:55:13;;;;;;;9.48;4.82;;;;;;;14.11;73.90;101002.91;18559356;32;20084;-64
2022/05/06 04:05:17;;;;;;;10.10;4.75;;;;;;;14.62;71.50;101011.28;18564120;32;20092;-64
2022/05/06 04:15:21;;;;;;;9.88;4.78;;;;;;;14.41;73.11;101018.44;18566433;32;20095;-64
2022/05/06 04:25:25;;;;;;;10.88;4.75;;;;;;;14.74;72.30;101031.31;18567220;32;20096;-64
2022/05/06 04:35:28;;;;;;;8.60;4.62;;;;;;;14.63;73.32;101037.50;18566036;32;20115;-64
2022/05/06 04:45:37;;;;;;;8.50;4.15;;;;;;;15.61;69.54;101035.62;18550990;32;20092;-64
2022/05/06 04:55:41;;;;;;;8.25;4.35;;;;;;;15.80;69.04;101036.25;18565544;32;20107;-64
2022/05/06 05:05:46;;;;;;;9.30;4.15;;;;;;;16.31;67.38;101040.78;18562789;32;20545;-64
2022/05/06 05:15:49;;;;;;;9.38;3.97;;;;;;;17.69;62.33;101057.63;18576379;31;20110;-65
2022/05/06 05:25:54;;;;;;;6.65;3.53;;;;;;;17.69;62.11;101058.53;18627950;31;20103;-65
2022/05/06 05:35:57;;;;;;;7.40;3.50;;;;;;;18.11;58.44;101067.31;18626924;31;20432;-65
2022/05/06 05:56:23;;;;;;;6.68;3.17;;;;;;;18.78;57.88;101074.50;18627105;31;20460;-65
2022/05/06 06:06:27;;;;;;;6.62;3.22;;;;;;;18.50;59.88;101069.91;18624709;31;20099;-65
2022/05/06 06:16:30;;;;;;;7.50;3.60;;;;;;;18.99;56.94;101077.47;18624899;31;20132;-65
2022/05/06 06:26:35;;;;;;;8.48;3.17;;;;;;;18.54;56.62;101086.56;18620414;31;20127;-65
2022/05/06 06:36:38;;;;;;;6.80;3.45;;;;;;;18.80;57.14;101085.91;18608213;31;20084;-65
2022/05/06 06:46:43;;;;;;;5.47;3.25;;;;;;;18.67;57.65;101077.41;18623019;31;20114;-65
2022/05/06 06:56:46;;;;;;;6.80;3.22;;;;;;;18.74;56.27;101080.78;18611453;31;20492;-65
2022/05/06 07:17:13;;;;;;;9.05;3.72;;;;;;;19.46;55.76;101077.13;18559175;31;20092;-66
2022/05/06 07:27:25;;;;;;;8.37;3.90;;;;;;;18.92;55.91;101086.47;18544947;31;20118;-65
2022/05/06 07:37:33;;;;;;;9.18;4.25;;;;;;;19.39;54.27;101080.84;18544720;31;20432;-66
2022/05/06 07:47:38;;;;;;;9.52;3.97;;;;;;;20.27;52.13;101074.72;18556593;32;74182;-66
2022/05/06 07:58:00;;;;;;;10.07;4.00;;;;;;;19.68;54.83;101081.78;18557476;31;20124;-65
2022/05/06 08:08:05;;;;;;;7.10;3.95;;;;;;;19.85;54.85;101091.88;18557206;31;20122;-65
2022/05/06 08:18:09;;;;;;;6.72;3.42;;;;;;;20.43;54.42;101095.44;18556706;31;20092;-65
2022/05/06 08:28:15;;;;;;;8.68;4.12;;;;;;;20.90;52.84;101084.16;18555788;31;20088;-66
2022/05/06 08:38:18;;;;;;;8.25;3.85;;;;;;;21.25;50.28;101090.03;18553122;31;20506;-66
2022/05/06 08:58:44;;;;;;;10.70;4.85;;;;;;;20.70;52.22;101087.50;18565192;32;20118;-65
2022/05/06 09:08:50;;;;;;;12.70;5.03;;;;;;;21.77;49.64;101091.72;18561212;31;20122;-65
2022/05/06 09:18:53;;;;;;;8.38;4.30;;;;;;;21.94;46.18;101083.06;18562395;31;20107;-65
2022/05/06 09:28:58;;;;;;;9.38;3.70;;;;;;;21.34;50.97;101088.81;18547753;32;20123;-66
2022/05/06 09:39:04;;;;;;;10.80;4.32;;;;;;;22.35;49.29;101076.16;18562415;31;20488;-65
2022/05/06 09:49:11;;;;;;;8.65;3.97;;;;;;;22.35;48.02;101076.16;18561439;32;20092;-66
2022/05/06 09:59:35;;;;;;;7.00;3.70;;;;;;;22.75;45.98;101071.00;18561068;31;20365;-66
2022/05/06 10:09:42;;;;;;;7.35;3.50;;;;;;;22.53;48.83;101055.97;18550560;32;20100;-66
2022/05/06 10:19:46;;;;;;;7.90;3.60;;;;;;;23.47;43.89;101060.75;18560386;31;20100;-65
2022/05/06 10:40:31;;;;;;;9.15;3.75;;;;;;;23.04;46.45;101053.72;18545193;31;20165;-66
2022/05/06 10:50:42;;;;;;;6.00;2.95;;;;;;;23.42;44.98;101047.66;18544920;31;20397;-66
2022/05/06 11:00:45;;;;;;;5.95;2.92;;;;;;;24.05;43.46;101038.50;18559577;31;20149;-66
2022/05/06 11:10:49;;;;;;;7.45;2.80;;;;;;;24.07;43.07;101023.28;18537228;31;20096;-66
2022/05/06 11:21:20;;;;;;;6.60;2.90;;;;;;;24.23;43.77;101018.06;18556370;31;20397;-66
2022/05/06 11:31:25;;;;;;;7.30;3.33;;;;;;;24.46;42.24;101017.84;18559842;32;20085;-67
2022/05/06 11:41:28;;;;;;;5.72;3.15;;;;;;;23.77;43.62;101005.16;18542291;31;20132;-66
2022/05/06 11:51:35;;;;;;;10.57;3.25;;;;;;;24.46;42.50;101005.34;18559138;32;20111;-68
2022/05/06 12:01:41;;;;;;;6.72;3.22;;;;;;;24.62;42.87;100996.56;18601790;31;20193;-66
2022/05/06 12:11:47;;;;;;;7.40;3.40;;;;;;;24.50;42.68;100982.91;18544283;31;20107;-66
2022/05/06 12:21:50;;;;;;;8.93;3.28;;;;;;;24.26;44.82;100979.69;18545172;31;20096;-66
2022/05/06 12:32:01;;;;;;;7.00;3.67;;;;;;;24.62;42.23;100973.41;18551437;32;20119;-66
2022/05/06 12:42:12;;;;;;;6.28;3.20;;;;;;;24.33;43.65;100977.56;18565336;32;20100;-66
2022/05/06 12:52:17;;;;;;;8.02;3.62;;;;;;;24.04;43.38;100969.22;18564780;32;20092;-66
2022/05/06 13:02:20;;;;;;;6.00;3.40;;;;;;;24.28;42.88;100960.94;18562632;32;20392;-66
2022/05/06 13:12:25;;;;;;;6.30;3.00;;;;;;;24.27;43.06;100949.41;18550045;32;20115;-66
2022/05/06 13:22:28;;;;;;;7.35;3.75;;;;;;;24.68;42.59;100948.19;18560173;32;20463;-66
2022/05/06 13:32:34;;;;;;;6.72;2.95;;;;;;;24.44;43.19;100940.53;18577919;31;20084;-65
2022/05/06 13:42:37;;;;;;;6.53;3.25;;;;;;;23.98;44.20;100939.25;18583912;31;20115;-66
2022/05/06 13:52:42;;;;;;;7.45;3.53;;;;;;;24.38;43.67;100923.03;18562268;32;20101;-66
2022/05/06 14:02:45;;;;;;;6.72;3.60;;;;;;;24.50;43.37;100926.88;18562915;32;20114;-66
2022/05/06 14:12:58;;;;;;;7.22;3.67;;;;;;;24.55;42.97;100917.75;18566974;31;20109;-66
2022/05/06 14:23:01;;;;;;;7.72;3.33;;;;;;;24.85;42.56;100920.63;18575975;31;20368;-66
2022/05/06 14:33:06;;;;;;;5.78;2.75;;;;;;;25.06;41.61;100907.91;18562159;31;20092;-66
2022/05/06 14:43:09;;;;;;;7.07;3.47;;;;;;;24.51;42.13;100903.72;18591300;31;20107;-68
2022/05/06 14:53:13;;;;;;;6.50;3.58;;;;;;;24.22;42.89;100895.44;18609621;31;20108;-68
2022/05/06 15:03:18;;;;;;;7.43;3.35;;;;;;;24.37;42.77;100899.09;18609118;31;20707;-68
2022/05/06 15:13:28;;;;;;;5.93;2.90;;;;;;;24.35;42.64;100893.00;18569313;31;20376;-68
2022/05/06 15:23:31;;;;;;;5.53;2.60;;;;;;;23.92;42.98;100890.69;18559302;32;20141;-68
2022/05/06 15:33:36;;;;;;;8.57;3.22;;;;;;;24.20;42.12;100884.87;18580015;31;20146;-68
2022/05/06 15:43:39;;;;;;;5.90;2.80;;;;;;;24.11;42.81;100872.84;18622657;31;20087;-68
2022/05/06 15:53:44;;;;;;;9.07;3.65;;;;;;;24.21;42.13;100872.38;18623485;31;20436;-68
2022/05/06 16:03:47;;;;;;;7.70;3.72;;;;;;;23.91;42.02;100871.19;18623145;31;20096;-67
2022/05/06 16:13:54;;;;;;;8.65;2.80;;;;;;;23.86;42.76;100864.37;18549132;32;20127;-68
2022/05/06 16:23:57;;;;;;;6.22;3.03;;;;;;;23.59;42.78;100867.47;18557156;32;20103;-67
2022/05/06 16:44:29;;;;;;;5.22;2.60;;;;;;;23.93;41.75;100863.09;18601520;31;20098;-68
2022/05/06 16:54:33;;;;;;;7.87;3.00;;;;;;;23.66;42.46;100866.22;18618456;31;20110;-68
2022/05/06 17:04:37;;;;;;;9.20;4.20;;;;;;;23.50;43.53;100863.47;18599978;31;20114;-68
2022/05/06 17:14:42;;;;;;;11.85;6.22;;;;;;;23.13;45.89;100879.41;18627568;31;20467;-68
2022/05/06 17:24:45;;;;;;;14.90;7.12;;;;;;;22.77;46.76;100874.84;18614153;31;20119;-68
2022/05/06 17:34:50;;;;;;;13.07;6.70;;;;;;;22.47;48.02;100878.78;18614940;31;20087;-68
2022/05/06 17:44:53;;;;;;;10.52;4.75;;;;;;;22.21;48.00;100883.50;18627819;31;20444;-68
2022/05/06 17:54:58;;;;;;;8.30;3.70;;;;;;;22.08;49.15;100883.16;18590777;31;20477;-68
2022/05/06 18:05:03;;;;;;;7.28;3.53;;;;;;;21.47;51.39;100893.56;18560133;31;20178;-67
2022/05/06 18:15:10;;;;;;;8.13;3.55;;;;;;;21.39;51.36;100905.41;18547624;32;20092;-67
2022/05/06 18:25:15;;;;;;;6.78;3.20;;;;;;;20.89;53.22;100917.94;18570980;31;20115;-68
2022/05/06 18:35:20;;;;;;;8.10;3.80;;;;;;;20.70;54.04;100923.88;18580214;31;20084;-67
2022/05/06 18:45:23;;;;;;;39.00;19.40;;;;;;;20.18;55.72;100934.53;18546806;32;20115;-67
2022/05/06 18:55:28;;;;;;;19.95;10.38;;;;;;;20.24;55.02;100942.28;18572068;31;20102;-68
2022/05/06 19:05:33;;;;;;;10.82;5.97;;;;;;;19.92;56.50;100949.50;18553278;32;20326;-67
2022/05/06 19:15:38;;;;;;;13.48;6.78;;;;;;;19.37;59.02;100947.69;18589476;31;20088;-67
2022/05/06 19:25:41;;;;;;;11.57;5.30;;;;;;;19.03;59.67;100959.25;18608269;31;20460;-67
2022/05/06 19:35:46;;;;;;;9.35;4.43;;;;;;;19.18;58.94;100960.56;18622764;31;20341;-67
2022/05/06 19:45:49;;;;;;;11.98;5.00;;;;;;;18.76;60.42;100969.66;18581691;31;20115;-67
2022/05/06 19:55:54;;;;;;;10.40;4.97;;;;;;;18.61;60.99;100971.81;18608160;31;20084;-67
2022/05/06 20:05:58;;;;;;;10.52;5.10;;;;;;;18.09;62.88;100969.59;18621261;31;20115;-67
2022/05/06 20:16:02;;;;;;;9.57;4.68;;;;;;;18.06;63.62;100968.78;18562146;31;20200;-67
2022/05/06 20:26:05;;;;;;;11.43;5.18;;;;;;;17.85;64.32;100969.25;18555907;32;20437;-67
2022/05/06 20:36:11;;;;;;;13.25;5.50;;;;;;;17.73;65.04;100972.16;18613281;31;20100;-67
2022/05/06 20:46:14;;;;;;;11.90;5.90;;;;;;;17.38;66.11;100965.91;18620969;31;20092;-67
2022/05/06 20:56:18;;;;;;;18.52;7.87;;;;;;;17.32;66.72;100967.78;18573331;31;20110;-67
2022/05/06 21:06:22;;;;;;;11.60;5.62;;;;;;;17.26;66.72;100970.56;18590090;31;20096;-67
2022/05/06 21:16:26;;;;;;;12.13;5.90;;;;;;;17.00;67.62;100977.22;18582638;31;20096;-67
2022/05/06 21:26:30;;;;;;;13.15;6.12;;;;;;;17.19;66.71;100969.81;18562257;32;20099;-67
2022/05/06 21:36:35;;;;;;;14.73;7.20;;;;;;;16.87;67.89;100981.84;18564947;32;20088;-67
2022/05/06 21:46:38;;;;;;;13.07;6.20;;;;;;;16.96;67.26;100978.16;18563734;32;20149;-67
2022/05/06 21:56:43;;;;;;;16.08;8.15;;;;;;;16.75;67.82;100976.81;18563499;32;20436;-67
2022/05/06 22:06:47;;;;;;;16.02;7.32;;;;;;;16.66;67.82;100977.84;18563426;32;20096;-67
2022/05/06 22:16:52;;;;;;;15.65;7.10;;;;;;;16.62;68.35;100970.91;18563444;32;20112;-67
2022/05/06 22:26:55;;;;;;;15.32;8.10;;;;;;;16.38;69.29;100967.78;18562916;32;20739;-67
2022/05/06 22:37:00;;;;;;;15.90;9.15;;;;;;;16.07;70.04;100973.56;18562527;32;20379;-67
2022/05/06 22:47:04;;;;;;;17.40;9.13;;;;;;;16.09;69.77;100962.13;18562185;32;20092;-66
2022/05/06 22:57:08;;;;;;;14.23;6.87;;;;;;;16.04;69.28;100968.38;18562882;32;20185;-67
2022/05/06 23:07:11;;;;;;;12.52;5.97;;;;;;;15.64;70.19;100964.53;18560853;32;20440;-67
2022/05/06 23:17:16;;;;;;;13.48;6.28;;;;;;;15.80;69.72;100973.06;18561336;32;20084;-66
2022/05/06 23:27:19;;;;;;;14.82;7.22;;;;;;;15.46;71.19;100982.31;18562266;32;20161;-67
2022/05/06 23:37:30;;;;;;;11.77;6.03;;;;;;;15.63;70.39;100983.84;18561643;32;20154;-67
2022/05/06 23:47:33;;;;;;;12.50;6.32;;;;;;;15.42;71.70;100985.00;18560340;32;20143;-67
2022/05/06 23:57:37;;;;;;;12.80;5.82;;;;;;;15.54;71.92;100982.19;18559906;32;20118;-67
